CheckWX is a tool to help pilots better visualize weather data.  It is not intended as a substitute for an official pre-flight weather briefing.

10:57:03 UTC

7W4 METAR
Lake Anna Airport
Bumpass, Virginia, USA
Current

22 mins ago

K7W4 141035Z AUTO 00000KT M1/4SM OVC002 09/09 A3001 RMK AO1 T00920085
Observed
Oct-14 @ 10:35 UTC
Visibility
1/4 SM
Flight Rules
LIFR
Cloud Levels
  • Overcast at 200' AGL
Temperature
C / 48°F
Dewpoint
C / 48°F
Humidity
100%
Altimeter
30.01" Hg
Pressure
1016.22 hPa
Previous

42 mins ago

K7W4 141015Z AUTO 00000KT 1SM OVC002 09/08 A2999 RMK AO1 T00900083
Observed
Oct-14 @ 10:15 UTC
Visibility
1 SM
Flight Rules
LIFR
Cloud Levels
  • Overcast at 200' AGL
Temperature
C / 48°F
Dewpoint
C / 46°F
Humidity
94%
Altimeter
29.99" Hg
Pressure
1015.62 hPa
Previous

1 hour ago

K7W4 140955Z AUTO 28004KT 3/4SM OVC002 09/09 A2998 RMK AO1 T00930086
Observed
Oct-14 @ 09:55 UTC
Wind
  • 280° at 4 KTS
Visibility
3/4 SM
Flight Rules
LIFR
Cloud Levels
  • Overcast at 200' AGL
Temperature
C / 48°F
Dewpoint
C / 48°F
Humidity
100%
Altimeter
29.98" Hg
Pressure
1015.22 hPa